x

St Georges - 8nm Nw Of Crescent City, Ca (46027) Wave Buoy

10:50am - Fri 19th Sep 2014 All times are PDT. -7 hours from GMT.

  • Sig Wave height 5.2ft
  • Swell Direction
  • Peak Period 9s
  • Average Period 6s
  • Wind
    13mph, 18mph gusts
  • Sea Temp 55°f
  • Air Temp 55°f
  • Sea Pressure 1015.4mb
  • St Georges - 8nm Nw Of Crescent City, Ca
  • St Georges - 8nm Nw Of Crescent City, Ca

More Historic Weather Station data

Upgrade to MSW Pro to gain access to the past 30 days of data for over 8000 Wavebouys and Weather Stations around the globe.

Join Pro

Comparision Forecast

View Surf forecast
   
Fri 09/19 10:50am 5ft 9s 6s 13 18 mph 1015.4mb 55f 55f
9:50am 5ft 9s 6s 16 18 mph 1015.6mb 55f 55f
8:50am 5ft 10s 7s 13 16 mph 1015.9mb 55f 54f
7:50am 5ft 11s 7s 11 13 mph 1016mb 55f 54f
6:50am 4.5ft 11s 7s 11 13 mph 1015.6mb 55f 54f
5:50am 4.5ft 9s 8s 7 9 mph 1015.5mb 55f 54f
4:50am 4.5ft 9s 8s 7 9 mph 1015.3mb 55f 53f
3:50am  -   -   -  9 11 mph 1015.5mb 55f 54f
2:50am  -   -   -  11 13 mph 1015.7mb 55f 53f
1:50am 5.5ft 10s 8s 11 13 mph 1015.9mb 55f 54f
12:50am 6ft 16s 8s 11 13 mph 1016mb 56f 54f
Thu 09/18 11:50pm 6ft 9s 8s 9 11 mph 1016mb 56f 54f
10:50pm 5.5ft 9s 8s 9
mph
1015.9mb 55f 54f
9:50pm 5ft 9s 8s 11 13 mph 1015.4mb 55f 54f
8:50pm 5ft 10s 8s 11 13 mph 1015.2mb 56f 56f
7:50pm 5.5ft 16s 8s 7 9 mph 1014.5mb 56f 55f
6:50pm  -   -   -  7 9 mph 1014.1mb 56f 56f
5:50pm 5.5ft 10s 8s 7 9 mph 1013.6mb 56f 56f
4:50pm 6ft 10s 8s 9 11 mph 1013.1mb 57f 56f
3:50pm 5.5ft 10s 8s 11
mph
1012.5mb 57f 56f
2:50pm 5.5ft 10s 8s 13 16 mph 1012.3mb 56f 56f
1:50pm 6ft 11s 8s 9 11 mph 1012mb 56f 56f
12:50pm 6ft 10s 8s 9 13 mph 1011.8mb 56f 56f
11:50am 7ft 11s 9s 4 7 mph 1011.2mb 56f 58f
10:50am 7ft 11s 8s 9 11 mph 1010.8mb 55f 56f
9:50am 7ft 8s 9s 4 9 mph 1010.4mb 55f 54f
8:50am 6ft 8s 8s 7 9 mph 1009.8mb 55f 54f
7:50am 6ft 17s 9s 9 11 mph 1008.9mb 54f 54f
6:50am 5.5ft 8s 8s 11 13 mph 1008.1mb 54f 54f
5:50am 6ft 17s 9s 11 13 mph 1007.6mb 54f 54f
4:50am 6ft 17s 9s 7 9 mph 1007.6mb 54f 54f
3:50am 6ft 12s 9s 7 9 mph 1007.5mb 55f 54f
2:50am 6ft 12s 9s 4 7 mph 1007.4mb 55f 54f
1:50am 5.5ft 11s 9s 9 11 mph 1007.3mb 55f 54f
12:50am 6ft 17s 9s 4
mph
1007.7mb 55f 54f
Wed 09/17 11:50pm 5.5ft 13s 9s 4 7 mph 1007.4mb 55f 54f
10:50pm 5ft 12s 9s 4 9 mph 1007.4mb 55f 54f
9:50pm 5ft 12s 9s 7 9 mph 1007mb 55f 53f
8:50pm 6ft 17s 11s 4 11 mph 1007.2mb 55f 53f
7:50pm 6ft 13s 10s 2 4 mph 1007.3mb 55f 53f
6:50pm  -   -   -  7 9 mph 1007.1mb 55f 53f
5:50pm 5ft 17s 11s 4 13 mph 1008mb 56f 53f
4:50pm 4.5ft 13s 9s 7 9 mph 1008.1mb 56f 53f
3:50pm 4.5ft 17s 10s 7 9 mph 1008.7mb 56f 54f
2:50pm 4.5ft 17s 10s 2 4 mph 1009.6mb 56f 53f
1:50pm 4.5ft 19s 10s 7 9 mph 1009.9mb 55f 53f
12:50pm 5ft 13s 10s 9 13 mph 1010.2mb 54f 52f
11:50am 4.5ft 14s 10s 7 11 mph 1010.1mb 54f 52f
10:50am 5.5ft 13s 10s 9 11 mph 1009.1mb 54f 52f
9:50am 5.5ft 14s 11s 9 11 mph 1008.4mb 54f 52f
8:50am 6ft 12s 11s 11 13 mph 1008.5mb 54f 52f
7:50am 5.5ft 14s 11s 7
mph
1008.5mb 54f 52f
6:50am 5.5ft 19s 11s 4 7 mph 1008.6mb 54f 53f
5:50am 5.5ft 14s 11s  -  2 mph 1008.6mb 53f 52f
4:50am 5ft 15s 11s 2 4 mph 1008.7mb 53f 53f
3:50am 6ft 14s 12s 4
mph
1009.4mb 54f 53f
2:50am 5ft 19s 11s 2 4 mph 1009.7mb 53f 52f
1:50am 5ft 15s 11s 4
mph
1010.2mb 53f 52f
12:50am 4ft 19s 10s  -  2 mph 1010.3mb 54f 52f
Tue 09/16 11:50pm  -   -   -  7
mph
1010.5mb 54f 53f
10:50pm 5ft 19s 11s 7
mph
1010.6mb 55f 53f
9:50pm 3.5ft 19s 10s 4 9 mph 1010.8mb 55f 53f
8:50pm 4.5ft 19s 11s 2
mph
1011.7mb 55f 54f
7:50pm 3.5ft 19s 9s 2 4 mph 1011.8mb 55f 55f
6:50pm 3.5ft 21s 10s  -  2 mph 1012mb 55f 56f
5:50pm 3.5ft 19s 9s  -  4 mph 1012.5mb 55f 59f
4:50pm 3.5ft 19s 9s  -  2 mph 1012.9mb 56f 58f
3:50pm 3.5ft 19s 8s 4 7 mph 1013.3mb 56f 56f
2:50pm 4ft 21s 11s 2 4 mph 1014.3mb 55f 57f
1:50pm 2.5ft 19s 7s 4 7 mph 1014.7mb 55f 58f
12:50pm 3.5ft 19s 10s 4 7 mph 1014.9mb 55f 58f
11:50am 3.5ft 19s 9s 2
mph
1014.9mb 54f 57f
10:50am 3.5ft 21s 8s 7
mph
1014.9mb 53f 55f
9:50am 3ft 16s 8s 7 9 mph 1014.8mb 53f 53f
8:50am 3.5ft 21s 9s 7
mph
1015mb 53f 53f
7:50am 3.5ft 21s 10s 4 7 mph 1014.8mb 53f 52f
6:50am 3ft 21s 9s 4
mph
1014.3mb 53f 51f
5:50am 2.5ft 16s 8s 2
mph
1013.9mb 53f 51f
4:50am 2.5ft 21s 9s 4
mph
1013.8mb 53f 51f
3:50am 3ft 21s 8s 4 7 mph 1014.2mb 53f 51f
2:50am 3ft 21s 9s 7
mph
1014.5mb 53f 51f
1:50am 3ft 21s 9s 4 7 mph 1014.7mb 53f 51f
12:50am 2.5ft 21s 7s 4
mph
1014.6mb 53f 52f
Mon 09/15 11:50pm 3.5ft 21s 9s 2 4 mph 1014.7mb 53f 52f
10:50pm 2.5ft 21s 6s 4 7 mph 1014.3mb 53f 52f
9:50pm 3ft 17s 7s 7
mph
1014.4mb 53f 52f
8:50pm 3ft 21s 7s  -  2 mph 1014.3mb 53f 52f
7:50pm 2.5ft 17s 6s 2
mph
1013.6mb 53f 52f